sensor_id;sensor_type;location;lat;lon;timestamp;pressure;altitude;pressure_sealevel;temperature;humidity
44313;BME280;38833;51.142;-0.974;2022-07-29T00:01:16;100310.17;;;26.29;32.24
44313;BME280;38833;51.142;-0.974;2022-07-29T00:03:50;100307.96;;;26.23;32.32
44313;BME280;38833;51.142;-0.974;2022-07-29T00:06:23;100304.43;;;26.38;32.12
44313;BME280;38833;51.142;-0.974;2022-07-29T00:08:56;100303.22;;;25.86;32.16
44313;BME280;38833;51.142;-0.974;2022-07-29T00:11:30;100306.32;;;25.82;32.16
44313;BME280;38833;51.142;-0.974;2022-07-29T00:14:03;100309.25;;;26.07;32.18
44313;BME280;38833;51.142;-0.974;2022-07-29T00:16:36;100307.05;;;26.05;32.20
44313;BME280;38833;51.142;-0.974;2022-07-29T00:19:10;100304.94;;;26.25;32.26
44313;BME280;38833;51.142;-0.974;2022-07-29T00:21:43;100304.61;;;26.23;32.29
44313;BME280;38833;51.142;-0.974;2022-07-29T00:24:16;100305.84;;;26.05;32.21
44313;BME280;38833;51.142;-0.974;2022-07-29T00:26:49;100305.70;;;25.75;32.28
44313;BME280;38833;51.142;-0.974;2022-07-29T00:29:23;100302.99;;;26.27;32.24
44313;BME280;38833;51.142;-0.974;2022-07-29T00:31:56;100296.30;;;25.78;32.21
44313;BME280;38833;51.142;-0.974;2022-07-29T00:34:30;100292.29;;;26.02;32.22
44313;BME280;38833;51.142;-0.974;2022-07-29T00:37:03;100291.17;;;25.94;32.30
44313;BME280;38833;51.142;-0.974;2022-07-29T00:39:37;100292.09;;;26.13;32.37
44313;BME280;38833;51.142;-0.974;2022-07-29T00:42:10;100295.55;;;25.96;32.25
44313;BME280;38833;51.142;-0.974;2022-07-29T00:44:43;100293.10;;;25.94;32.23
44313;BME280;38833;51.142;-0.974;2022-07-29T00:47:17;100293.08;;;25.88;32.30
44313;BME280;38833;51.142;-0.974;2022-07-29T00:49:50;100289.50;;;25.64;32.30
44313;BME280;38833;51.142;-0.974;2022-07-29T00:52:23;100291.18;;;25.96;32.24
44313;BME280;38833;51.142;-0.974;2022-07-29T00:54:56;100288.92;;;25.84;32.37
44313;BME280;38833;51.142;-0.974;2022-07-29T00:57:30;100289.45;;;26.33;32.36
44313;BME280;38833;51.142;-0.974;2022-07-29T01:00:05;100291.90;;;26.07;32.42
44313;BME280;38833;51.142;-0.974;2022-07-29T01:02:39;100290.78;;;26.06;32.43
44313;BME280;38833;51.142;-0.974;2022-07-29T01:05:12;100292.21;;;25.81;32.48
44313;BME280;38833;51.142;-0.974;2022-07-29T01:07:46;100291.96;;;26.01;32.52
44313;BME280;38833;51.142;-0.974;2022-07-29T01:10:22;100288.56;;;25.85;32.46
44313;BME280;38833;51.142;-0.974;2022-07-29T01:12:58;100284.64;;;25.75;32.55
44313;BME280;38833;51.142;-0.974;2022-07-29T01:15:33;100282.24;;;26.21;32.22
44313;BME280;38833;51.142;-0.974;2022-07-29T01:18:16;100281.47;;;25.91;32.35
44313;BME280;38833;51.142;-0.974;2022-07-29T01:21:09;100283.45;;;25.97;32.24
44313;BME280;38833;51.142;-0.974;2022-07-29T01:24:04;100288.62;;;26.06;32.12
44313;BME280;38833;51.142;-0.974;2022-07-29T01:26:46;100290.89;;;26.16;32.23
44313;BME280;38833;51.142;-0.974;2022-07-29T01:29:25;100291.03;;;26.45;31.84
44313;BME280;38833;51.142;-0.974;2022-07-29T01:32:03;100292.89;;;25.96;32.10
44313;BME280;38833;51.142;-0.974;2022-07-29T01:34:42;100290.33;;;26.19;32.10
44313;BME280;38833;51.142;-0.974;2022-07-29T01:37:23;100291.68;;;26.16;32.13
44313;BME280;38833;51.142;-0.974;2022-07-29T01:40:00;100290.67;;;25.94;32.10
44313;BME280;38833;51.142;-0.974;2022-07-29T01:42:38;100291.41;;;25.87;32.21
44313;BME280;38833;51.142;-0.974;2022-07-29T01:45:18;100289.91;;;25.87;31.89
44313;BME280;38833;51.142;-0.974;2022-07-29T01:47:58;100284.84;;;26.07;32.22
44313;BME280;38833;51.142;-0.974;2022-07-29T01:50:35;100281.36;;;25.81;32.25
44313;BME280;38833;51.142;-0.974;2022-07-29T01:53:12;100283.58;;;26.00;32.31
44313;BME280;38833;51.142;-0.974;2022-07-29T01:55:48;100284.28;;;25.81;32.26
44313;BME280;38833;51.142;-0.974;2022-07-29T01:58:23;100287.32;;;25.96;32.36
44313;BME280;38833;51.142;-0.974;2022-07-29T02:04:29;100283.23;;;26.23;31.99
44313;BME280;38833;51.142;-0.974;2022-07-29T02:07:06;100283.17;;;26.11;32.13
44313;BME280;38833;51.142;-0.974;2022-07-29T02:09:41;100285.59;;;26.05;32.19
44313;BME280;38833;51.142;-0.974;2022-07-29T02:12:16;100285.68;;;25.73;32.28
44313;BME280;38833;51.142;-0.974;2022-07-29T02:14:53;100284.09;;;25.99;32.22
44313;BME280;38833;51.142;-0.974;2022-07-29T02:17:32;100285.56;;;25.95;32.26
44313;BME280;38833;51.142;-0.974;2022-07-29T02:20:08;100282.23;;;26.08;32.06
44313;BME280;38833;51.142;-0.974;2022-07-29T02:22:44;100277.40;;;26.02;32.13
44313;BME280;38833;51.142;-0.974;2022-07-29T02:25:18;100276.48;;;25.89;32.21
44313;BME280;38833;51.142;-0.974;2022-07-29T02:27:54;100279.01;;;25.91;32.24
44313;BME280;38833;51.142;-0.974;2022-07-29T02:30:29;100282.64;;;25.85;32.30
44313;BME280;38833;51.142;-0.974;2022-07-29T02:33:04;100283.56;;;25.99;32.12
44313;BME280;38833;51.142;-0.974;2022-07-29T02:35:40;100279.54;;;25.70;32.18
44313;BME280;38833;51.142;-0.974;2022-07-29T02:38:15;100275.17;;;25.89;32.22
44313;BME280;38833;51.142;-0.974;2022-07-29T02:40:50;100273.94;;;25.84;32.24
44313;BME280;38833;51.142;-0.974;2022-07-29T02:43:26;100275.95;;;25.81;32.25
44313;BME280;38833;51.142;-0.974;2022-07-29T02:46:02;100275.42;;;25.80;32.25
44313;BME280;38833;51.142;-0.974;2022-07-29T02:48:43;100277.96;;;25.77;32.29
44313;BME280;38833;51.142;-0.974;2022-07-29T02:51:25;100280.30;;;25.86;32.16
44313;BME280;38833;51.142;-0.974;2022-07-29T02:54:02;100277.57;;;25.67;32.10
44313;BME280;38833;51.142;-0.974;2022-07-29T02:56:40;100278.26;;;25.80;32.24
44313;BME280;38833;51.142;-0.974;2022-07-29T02:59:18;100279.19;;;25.95;32.05
44313;BME280;38833;51.142;-0.974;2022-07-29T03:01:55;100281.91;;;25.83;32.18
44313;BME280;38833;51.142;-0.974;2022-07-29T03:04:31;100282.64;;;25.97;32.24
44313;BME280;38833;51.142;-0.974;2022-07-29T03:07:05;100282.21;;;25.65;32.36
44313;BME280;38833;51.142;-0.974;2022-07-29T03:09:40;100275.78;;;25.66;32.35
44313;BME280;38833;51.142;-0.974;2022-07-29T03:12:14;100275.32;;;25.61;32.39
44313;BME280;38833;51.142;-0.974;2022-07-29T03:14:48;100277.27;;;25.56;32.49
44313;BME280;38833;51.142;-0.974;2022-07-29T03:17:22;100280.82;;;25.57;32.49
44313;BME280;38833;51.142;-0.974;2022-07-29T03:19:56;100281.98;;;25.55;32.54
44313;BME280;38833;51.142;-0.974;2022-07-29T03:22:29;100282.86;;;25.74;32.58
44313;BME280;38833;51.142;-0.974;2022-07-29T03:25:08;100282.64;;;25.76;32.56
44313;BME280;38833;51.142;-0.974;2022-07-29T03:27:42;100282.10;;;25.50;32.60
44313;BME280;38833;51.142;-0.974;2022-07-29T03:30:16;100280.17;;;25.68;32.66
44313;BME280;38833;51.142;-0.974;2022-07-29T03:32:50;100280.13;;;25.48;32.64
44313;BME280;38833;51.142;-0.974;2022-07-29T03:35:24;100281.41;;;25.49;32.62
44313;BME280;38833;51.142;-0.974;2022-07-29T03:37:57;100278.04;;;25.32;32.51
44313;BME280;38833;51.142;-0.974;2022-07-29T03:40:33;100275.83;;;25.45;32.62
44313;BME280;38833;51.142;-0.974;2022-07-29T03:43:09;100275.02;;;25.49;32.58
44313;BME280;38833;51.142;-0.974;2022-07-29T03:45:47;100274.11;;;25.48;32.60
44313;BME280;38833;51.142;-0.974;2022-07-29T03:48:24;100277.73;;;25.71;32.58
44313;BME280;38833;51.142;-0.974;2022-07-29T03:50:59;100281.29;;;25.46;32.58
44313;BME280;38833;51.142;-0.974;2022-07-29T03:53:33;100284.74;;;25.49;32.54
44313;BME280;38833;51.142;-0.974;2022-07-29T03:56:07;100286.53;;;25.68;32.56
44313;BME280;38833;51.142;-0.974;2022-07-29T03:58:42;100288.06;;;25.47;32.52
44313;BME280;38833;51.142;-0.974;2022-07-29T04:01:17;100286.53;;;25.45;32.52
44313;BME280;38833;51.142;-0.974;2022-07-29T04:03:51;100287.23;;;25.70;32.45
44313;BME280;38833;51.142;-0.974;2022-07-29T04:06:24;100290.32;;;25.62;32.50
44313;BME280;38833;51.142;-0.974;2022-07-29T04:08:57;100294.21;;;25.63;32.51
44313;BME280;38833;51.142;-0.974;2022-07-29T04:11:31;100295.93;;;25.39;32.50
44313;BME280;38833;51.142;-0.974;2022-07-29T04:14:04;100298.71;;;25.41;32.47
44313;BME280;38833;51.142;-0.974;2022-07-29T04:16:37;100299.13;;;25.71;32.39
44313;BME280;38833;51.142;-0.974;2022-07-29T04:19:10;100300.83;;;25.43;32.44
44313;BME280;38833;51.142;-0.974;2022-07-29T04:21:44;100294.87;;;25.59;32.48
44313;BME280;38833;51.142;-0.974;2022-07-29T04:24:17;100291.91;;;25.38;32.46
44313;BME280;38833;51.142;-0.974;2022-07-29T04:26:50;100289.59;;;25.41;32.41
44313;BME280;38833;51.142;-0.974;2022-07-29T04:29:23;100288.75;;;25.54;32.51
44313;BME280;38833;51.142;-0.974;2022-07-29T04:31:57;100292.85;;;25.51;32.54
44313;BME280;38833;51.142;-0.974;2022-07-29T04:34:30;100295.69;;;25.22;32.60
44313;BME280;38833;51.142;-0.974;2022-07-29T04:37:03;100299.81;;;25.30;32.52
44313;BME280;38833;51.142;-0.974;2022-07-29T04:39:36;100298.60;;;25.51;32.52
44313;BME280;38833;51.142;-0.974;2022-07-29T04:42:10;100295.08;;;25.47;32.56
44313;BME280;38833;51.142;-0.974;2022-07-29T04:44:43;100295.15;;;25.41;32.63
44313;BME280;38833;51.142;-0.974;2022-07-29T04:47:16;100298.09;;;25.22;32.62
44313;BME280;38833;51.142;-0.974;2022-07-29T04:49:50;100298.88;;;25.26;32.56
44313;BME280;38833;51.142;-0.974;2022-07-29T04:52:23;100298.13;;;25.23;32.57
44313;BME280;38833;51.142;-0.974;2022-07-29T04:54:56;100298.62;;;25.20;32.63
44313;BME280;38833;51.142;-0.974;2022-07-29T04:57:30;100299.65;;;25.41;32.66
44313;BME280;38833;51.142;-0.974;2022-07-29T05:00:04;100302.01;;;25.18;32.67
44313;BME280;38833;51.142;-0.974;2022-07-29T05:02:37;100298.66;;;25.45;32.59
44313;BME280;38833;51.142;-0.974;2022-07-29T05:05:11;100299.59;;;25.69;32.59
44313;BME280;38833;51.142;-0.974;2022-07-29T05:07:44;100297.30;;;25.30;32.47
44313;BME280;38833;51.142;-0.974;2022-07-29T05:10:17;100298.57;;;25.45;32.53
44313;BME280;38833;51.142;-0.974;2022-07-29T05:12:51;100300.74;;;25.47;32.50
44313;BME280;38833;51.142;-0.974;2022-07-29T05:15:24;100302.13;;;25.21;32.54
44313;BME280;38833;51.142;-0.974;2022-07-29T05:17:57;100303.62;;;25.16;32.59
44313;BME280;38833;51.142;-0.974;2022-07-29T05:20:31;100306.52;;;25.39;32.58
44313;BME280;38833;51.142;-0.974;2022-07-29T05:23:04;100308.69;;;25.38;32.57
44313;BME280;38833;51.142;-0.974;2022-07-29T05:25:37;100309.93;;;24.95;32.57
44313;BME280;38833;51.142;-0.974;2022-07-29T05:28:11;100307.36;;;25.18;32.53
44313;BME280;38833;51.142;-0.974;2022-07-29T05:30:44;100305.81;;;25.39;32.56
44313;BME280;38833;51.142;-0.974;2022-07-29T05:33:17;100305.58;;;25.65;32.58
44313;BME280;38833;51.142;-0.974;2022-07-29T05:35:51;100306.28;;;25.17;32.58
44313;BME280;38833;51.142;-0.974;2022-07-29T05:38:24;100307.48;;;25.39;32.59
44313;BME280;38833;51.142;-0.974;2022-07-29T05:40:58;100309.11;;;25.17;32.62
44313;BME280;38833;51.142;-0.974;2022-07-29T05:43:31;100310.60;;;25.19;32.58
44313;BME280;38833;51.142;-0.974;2022-07-29T05:46:04;100313.42;;;25.38;32.63
44313;BME280;38833;51.142;-0.974;2022-07-29T05:48:48;100316.03;;;25.16;32.61
44313;BME280;38833;51.142;-0.974;2022-07-29T05:51:21;100319.13;;;25.13;32.67
44313;BME280;38833;51.142;-0.974;2022-07-29T05:53:54;100324.70;;;25.39;32.59
44313;BME280;38833;51.142;-0.974;2022-07-29T05:56:27;100323.68;;;25.10;32.66
44313;BME280;38833;51.142;-0.974;2022-07-29T05:59:00;100323.93;;;25.31;32.64
44313;BME280;38833;51.142;-0.974;2022-07-29T06:01:34;100328.23;;;25.26;32.70
44313;BME280;38833;51.142;-0.974;2022-07-29T06:04:07;100332.58;;;25.06;32.61
44313;BME280;38833;51.142;-0.974;2022-07-29T06:06:40;100336.67;;;25.50;32.37
44313;BME280;38833;51.142;-0.974;2022-07-29T06:09:13;100338.98;;;25.43;32.09
44313;BME280;38833;51.142;-0.974;2022-07-29T06:11:47;100338.02;;;25.20;32.36
44313;BME280;38833;51.142;-0.974;2022-07-29T06:14:20;100335.03;;;26.07;31.86
44313;BME280;38833;51.142;-0.974;2022-07-29T06:16:53;100335.08;;;25.59;32.08
44313;BME280;38833;51.142;-0.974;2022-07-29T06:19:27;100335.80;;;25.48;32.23
44313;BME280;38833;51.142;-0.974;2022-07-29T06:22:00;100337.79;;;25.79;31.92
44313;BME280;38833;51.142;-0.974;2022-07-29T06:24:34;100339.88;;;25.53;31.96
44313;BME280;38833;51.142;-0.974;2022-07-29T06:27:09;100342.29;;;25.55;31.95
44313;BME280;38833;51.142;-0.974;2022-07-29T06:29:42;100336.69;;;25.92;31.77
44313;BME280;38833;51.142;-0.974;2022-07-29T06:32:15;100339.75;;;25.49;32.01
44313;BME280;38833;51.142;-0.974;2022-07-29T06:34:48;100336.94;;;25.64;31.79
44313;BME280;38833;51.142;-0.974;2022-07-29T06:37:22;100335.03;;;25.35;32.18
44313;BME280;38833;51.142;-0.974;2022-07-29T06:39:55;100331.36;;;25.27;32.27
44313;BME280;38833;51.142;-0.974;2022-07-29T06:42:28;100331.55;;;25.29;32.27
44313;BME280;38833;51.142;-0.974;2022-07-29T06:45:02;100337.11;;;25.26;32.28
44313;BME280;38833;51.142;-0.974;2022-07-29T06:47:35;100335.96;;;25.67;32.09
44313;BME280;38833;51.142;-0.974;2022-07-29T06:50:09;100334.68;;;25.88;31.78
44313;BME280;38833;51.142;-0.974;2022-07-29T06:52:42;100338.92;;;25.77;31.65
44313;BME280;38833;51.142;-0.974;2022-07-29T06:55:16;100337.21;;;25.80;31.90
44313;BME280;38833;51.142;-0.974;2022-07-29T06:57:49;100337.21;;;25.72;31.70
44313;BME280;38833;51.142;-0.974;2022-07-29T07:00:22;100339.56;;;25.96;31.61
44313;BME280;38833;51.142;-0.974;2022-07-29T07:02:55;100345.79;;;25.90;31.42
44313;BME280;38833;51.142;-0.974;2022-07-29T07:05:29;100347.36;;;25.73;31.62
44313;BME280;38833;51.142;-0.974;2022-07-29T07:08:02;100350.60;;;25.70;31.58
44313;BME280;38833;51.142;-0.974;2022-07-29T07:10:36;100353.92;;;25.89;31.36
44313;BME280;38833;51.142;-0.974;2022-07-29T07:13:10;100356.16;;;25.90;31.35
44313;BME280;38833;51.142;-0.974;2022-07-29T07:15:44;100361.22;;;25.71;31.58
44313;BME280;38833;51.142;-0.974;2022-07-29T07:18:18;100362.66;;;25.91;31.33
44313;BME280;38833;51.142;-0.974;2022-07-29T07:20:51;100365.58;;;25.66;31.64
44313;BME280;38833;51.142;-0.974;2022-07-29T07:23:24;100363.94;;;26.01;31.48
44313;BME280;38833;51.142;-0.974;2022-07-29T07:25:58;100360.60;;;25.65;31.63
44313;BME280;38833;51.142;-0.974;2022-07-29T07:28:31;100358.34;;;25.78;31.71
44313;BME280;38833;51.142;-0.974;2022-07-29T07:31:05;100352.72;;;25.80;31.45
44313;BME280;38833;51.142;-0.974;2022-07-29T07:33:38;100353.78;;;25.84;31.40
44313;BME280;38833;51.142;-0.974;2022-07-29T07:36:11;100358.75;;;25.93;31.28
44313;BME280;38833;51.142;-0.974;2022-07-29T07:38:44;100361.86;;;26.02;31.47
44313;BME280;38833;51.142;-0.974;2022-07-29T07:41:18;100367.83;;;25.95;31.57
44313;BME280;38833;51.142;-0.974;2022-07-29T07:43:51;100370.70;;;25.79;31.54
44313;BME280;38833;51.142;-0.974;2022-07-29T07:46:24;100372.65;;;25.81;31.51
44313;BME280;38833;51.142;-0.974;2022-07-29T07:48:58;100372.13;;;25.64;31.74
44313;BME280;38833;51.142;-0.974;2022-07-29T07:51:31;100367.09;;;25.92;31.61
44313;BME280;38833;51.142;-0.974;2022-07-29T07:54:04;100365.41;;;25.75;31.81
44313;BME280;38833;51.142;-0.974;2022-07-29T07:56:38;100367.75;;;25.58;31.75
44313;BME280;38833;51.142;-0.974;2022-07-29T07:59:11;100370.46;;;25.81;31.41
44313;BME280;38833;51.142;-0.974;2022-07-29T08:01:44;100375.45;;;26.02;31.13
44313;BME280;38833;51.142;-0.974;2022-07-29T08:04:17;100373.86;;;26.06;31.07
44313;BME280;38833;51.142;-0.974;2022-07-29T08:06:51;100370.36;;;26.27;30.86
44313;BME280;38833;51.142;-0.974;2022-07-29T08:09:25;100370.02;;;26.48;30.62
44313;BME280;38833;51.142;-0.974;2022-07-29T08:11:59;100374.74;;;26.59;30.45
44313;BME280;38833;51.142;-0.974;2022-07-29T08:14:32;100371.84;;;26.84;30.13
44313;BME280;38833;51.142;-0.974;2022-07-29T08:17:06;100370.62;;;26.67;29.77
44313;BME280;38833;51.142;-0.974;2022-07-29T08:19:39;100369.35;;;27.04;29.24
44313;BME280;38833;51.142;-0.974;2022-07-29T08:22:12;100367.77;;;27.56;28.39
44313;BME280;38833;51.142;-0.974;2022-07-29T08:24:45;100368.00;;;28.10;27.78
44313;BME280;38833;51.142;-0.974;2022-07-29T08:27:19;100370.64;;;27.53;28.08
44313;BME280;38833;51.142;-0.974;2022-07-29T08:29:52;100368.42;;;27.02;28.48
44313;BME280;38833;51.142;-0.974;2022-07-29T08:32:25;100368.87;;;27.68;28.31
44313;BME280;38833;51.142;-0.974;2022-07-29T08:34:58;100370.13;;;28.08;27.31
44313;BME280;38833;51.142;-0.974;2022-07-29T08:37:32;100366.84;;;27.96;27.47
44313;BME280;38833;51.142;-0.974;2022-07-29T08:40:06;100363.41;;;28.51;26.98
44313;BME280;38833;51.142;-0.974;2022-07-29T08:42:39;100360.66;;;27.46;28.24
44313;BME280;38833;51.142;-0.974;2022-07-29T08:45:13;100361.20;;;27.83;28.31
44313;BME280;38833;51.142;-0.974;2022-07-29T08:47:46;100361.83;;;27.32;29.16
44313;BME280;38833;51.142;-0.974;2022-07-29T08:50:20;100357.81;;;26.60;29.73
44313;BME280;38833;51.142;-0.974;2022-07-29T08:52:53;100364.43;;;26.87;29.94
44313;BME280;38833;51.142;-0.974;2022-07-29T08:55:28;100367.26;;;26.77;29.97
44313;BME280;38833;51.142;-0.974;2022-07-29T08:58:02;100365.41;;;26.85;30.07
44313;BME280;38833;51.142;-0.974;2022-07-29T09:00:37;100365.86;;;27.01;29.84
44313;BME280;38833;51.142;-0.974;2022-07-29T09:03:14;100366.92;;;27.01;29.88
44313;BME280;38833;51.142;-0.974;2022-07-29T09:05:48;100367.95;;;26.89;29.73
44313;BME280;38833;51.142;-0.974;2022-07-29T09:08:23;100369.49;;;27.11;29.78
44313;BME280;38833;51.142;-0.974;2022-07-29T09:10:56;100366.80;;;27.07;29.95
44313;BME280;38833;51.142;-0.974;2022-07-29T09:13:30;100365.21;;;27.06;29.98
44313;BME280;38833;51.142;-0.974;2022-07-29T09:16:04;100366.61;;;27.03;30.20
44313;BME280;38833;51.142;-0.974;2022-07-29T09:18:39;100364.47;;;27.02;30.21
44313;BME280;38833;51.142;-0.974;2022-07-29T09:21:13;100366.96;;;27.06;30.18
44313;BME280;38833;51.142;-0.974;2022-07-29T09:24:05;100365.32;;;26.89;30.67
44313;BME280;38833;51.142;-0.974;2022-07-29T09:26:41;100363.86;;;27.11;30.81
44313;BME280;38833;51.142;-0.974;2022-07-29T09:29:16;100362.31;;;26.80;30.80
44313;BME280;38833;51.142;-0.974;2022-07-29T09:31:51;100362.38;;;26.60;30.76
44313;BME280;38833;51.142;-0.974;2022-07-29T09:34:27;100363.59;;;26.82;30.83
44313;BME280;38833;51.142;-0.974;2022-07-29T09:37:01;100361.69;;;26.52;31.05
44313;BME280;38833;51.142;-0.974;2022-07-29T09:39:36;100361.60;;;26.78;30.88
44313;BME280;38833;51.142;-0.974;2022-07-29T09:42:10;100362.70;;;26.85;30.90
44313;BME280;38833;51.142;-0.974;2022-07-29T09:44:46;100364.03;;;26.62;30.99
44313;BME280;38833;51.142;-0.974;2022-07-29T09:47:20;100363.02;;;26.84;31.10
44313;BME280;38833;51.142;-0.974;2022-07-29T09:49:55;100362.38;;;26.97;30.83
44313;BME280;38833;51.142;-0.974;2022-07-29T09:52:29;100363.84;;;26.92;30.93
44313;BME280;38833;51.142;-0.974;2022-07-29T09:55:07;100360.71;;;26.95;31.00
44313;BME280;38833;51.142;-0.974;2022-07-29T09:57:40;100362.66;;;26.71;30.85
44313;BME280;38833;51.142;-0.974;2022-07-29T10:00:15;100362.71;;;27.00;30.85
44313;BME280;38833;51.142;-0.974;2022-07-29T10:02:49;100359.54;;;27.06;30.66
44313;BME280;38833;51.142;-0.974;2022-07-29T10:05:24;100356.18;;;26.94;30.54
44313;BME280;38833;51.142;-0.974;2022-07-29T10:07:58;100350.93;;;27.03;30.68
44313;BME280;38833;51.142;-0.974;2022-07-29T10:10:33;100346.67;;;27.07;30.61
44313;BME280;38833;51.142;-0.974;2022-07-29T10:13:08;100348.17;;;27.08;30.71
44313;BME280;38833;51.142;-0.974;2022-07-29T10:15:44;100348.77;;;26.79;30.75
44313;BME280;38833;51.142;-0.974;2022-07-29T10:18:18;100349.76;;;26.95;30.81
44313;BME280;38833;51.142;-0.974;2022-07-29T10:20:51;100351.39;;;27.04;30.71
44313;BME280;38833;51.142;-0.974;2022-07-29T10:23:25;100353.38;;;26.95;30.83
44313;BME280;38833;51.142;-0.974;2022-07-29T10:25:59;100353.75;;;27.02;30.78
44313;BME280;38833;51.142;-0.974;2022-07-29T10:28:33;100354.85;;;27.08;30.71
44313;BME280;38833;51.142;-0.974;2022-07-29T10:31:13;100355.33;;;27.20;30.59
44313;BME280;38833;51.142;-0.974;2022-07-29T10:33:56;100351.32;;;27.22;30.64
44313;BME280;38833;51.142;-0.974;2022-07-29T10:36:47;100354.29;;;27.21;30.66
44313;BME280;38833;51.142;-0.974;2022-07-29T10:39:38;100354.25;;;27.32;30.53
44313;BME280;38833;51.142;-0.974;2022-07-29T10:42:18;100350.78;;;27.43;30.43
44313;BME280;38833;51.142;-0.974;2022-07-29T10:44:53;100349.23;;;27.24;30.38
44313;BME280;38833;51.142;-0.974;2022-07-29T10:47:27;100349.28;;;27.37;30.51
44313;BME280;38833;51.142;-0.974;2022-07-29T10:50:02;100348.78;;;27.53;30.36
44313;BME280;38833;51.142;-0.974;2022-07-29T10:52:54;100350.89;;;27.57;30.32
44313;BME280;38833;51.142;-0.974;2022-07-29T10:55:32;100345.86;;;27.36;30.23
44313;BME280;38833;51.142;-0.974;2022-07-29T10:58:16;100344.38;;;27.45;30.18
44313;BME280;38833;51.142;-0.974;2022-07-29T11:00:51;100346.18;;;27.80;30.02
44313;BME280;38833;51.142;-0.974;2022-07-29T11:03:57;100346.27;;;27.64;29.98
44313;BME280;38833;51.142;-0.974;2022-07-29T11:07:06;100346.58;;;27.69;29.88
44313;BME280;38833;51.142;-0.974;2022-07-29T11:09:40;100347.45;;;27.73;29.82
44313;BME280;38833;51.142;-0.974;2022-07-29T11:12:46;100349.72;;;28.05;29.73
44313;BME280;38833;51.142;-0.974;2022-07-29T11:15:21;100351.24;;;28.01;29.70
44313;BME280;38833;51.142;-0.974;2022-07-29T11:18:10;100349.09;;;27.89;29.64
44313;BME280;38833;51.142;-0.974;2022-07-29T11:20:45;100350.62;;;27.61;29.62
44313;BME280;38833;51.142;-0.974;2022-07-29T11:23:20;100353.92;;;27.91;29.61
44313;BME280;38833;51.142;-0.974;2022-07-29T11:26:27;100353.53;;;28.05;29.73
44313;BME280;38833;51.142;-0.974;2022-07-29T11:29:03;100355.03;;;28.02;29.75
44313;BME280;38833;51.142;-0.974;2022-07-29T11:31:39;100350.60;;;27.68;29.91
44313;BME280;38833;51.142;-0.974;2022-07-29T11:34:18;100355.57;;;27.74;29.89
44313;BME280;38833;51.142;-0.974;2022-07-29T11:37:25;100361.96;;;27.81;29.80
44313;BME280;38833;51.142;-0.974;2022-07-29T11:40:15;100358.88;;;27.58;29.81
44313;BME280;38833;51.142;-0.974;2022-07-29T11:42:49;100356.25;;;27.87;29.76
44313;BME280;38833;51.142;-0.974;2022-07-29T11:45:25;100354.38;;;28.11;29.75
44313;BME280;38833;51.142;-0.974;2022-07-29T11:47:59;100358.76;;;27.88;29.76
44313;BME280;38833;51.142;-0.974;2022-07-29T11:50:35;100358.35;;;28.07;29.83
44313;BME280;38833;51.142;-0.974;2022-07-29T11:53:11;100353.76;;;27.80;29.58
44313;BME280;38833;51.142;-0.974;2022-07-29T11:55:44;100354.18;;;27.78;29.65
44313;BME280;38833;51.142;-0.974;2022-07-29T11:58:22;100347.37;;;27.95;29.43
44313;BME280;38833;51.142;-0.974;2022-07-29T12:00:55;100341.73;;;28.17;29.48
44313;BME280;38833;51.142;-0.974;2022-07-29T12:03:29;100343.11;;;27.95;29.47
44313;BME280;38833;51.142;-0.974;2022-07-29T12:06:10;100342.96;;;27.92;29.53
44313;BME280;38833;51.142;-0.974;2022-07-29T12:08:44;100343.49;;;27.96;29.48
44313;BME280;38833;51.142;-0.974;2022-07-29T12:11:19;100347.86;;;28.05;29.40
44313;BME280;38833;51.142;-0.974;2022-07-29T12:13:53;100339.60;;;28.09;29.36
44313;BME280;38833;51.142;-0.974;2022-07-29T12:16:35;100338.76;;;27.97;29.42
44313;BME280;38833;51.142;-0.974;2022-07-29T12:19:08;100336.96;;;28.15;29.33
44313;BME280;38833;51.142;-0.974;2022-07-29T12:21:45;100331.33;;;28.13;29.30
44313;BME280;38833;51.142;-0.974;2022-07-29T12:24:19;100329.67;;;27.88;29.41
44313;BME280;38833;51.142;-0.974;2022-07-29T12:26:53;100328.87;;;28.07;29.17
44313;BME280;38833;51.142;-0.974;2022-07-29T12:29:27;100325.63;;;28.24;29.20
44313;BME280;38833;51.142;-0.974;2022-07-29T12:32:00;100324.74;;;28.24;29.20
44313;BME280;38833;51.142;-0.974;2022-07-29T12:34:34;100318.79;;;28.23;29.31
44313;BME280;38833;51.142;-0.974;2022-07-29T12:37:09;100321.86;;;28.09;29.41
44313;BME280;38833;51.142;-0.974;2022-07-29T12:39:43;100321.70;;;28.57;29.19
44313;BME280;38833;51.142;-0.974;2022-07-29T12:42:16;100318.17;;;28.14;29.38
44313;BME280;38833;51.142;-0.974;2022-07-29T12:44:50;100315.94;;;28.15;29.33
44313;BME280;38833;51.142;-0.974;2022-07-29T12:47:23;100316.12;;;28.11;29.37
44313;BME280;38833;51.142;-0.974;2022-07-29T12:50:14;100317.17;;;28.06;29.37
44313;BME280;38833;51.142;-0.974;2022-07-29T12:52:48;100318.31;;;28.03;29.39
44313;BME280;38833;51.142;-0.974;2022-07-29T12:55:39;100319.69;;;27.66;29.54
44313;BME280;38833;51.142;-0.974;2022-07-29T12:58:13;100316.66;;;27.91;29.48
44313;BME280;38833;51.142;-0.974;2022-07-29T13:00:46;100317.22;;;27.78;29.59
44313;BME280;38833;51.142;-0.974;2022-07-29T13:03:19;100316.33;;;27.78;29.59
44313;BME280;38833;51.142;-0.974;2022-07-29T13:05:53;100311.84;;;27.68;29.70
44313;BME280;38833;51.142;-0.974;2022-07-29T13:08:26;100310.48;;;27.80;29.57
44313;BME280;38833;51.142;-0.974;2022-07-29T13:10:59;100313.94;;;27.78;29.56
44313;BME280;38833;51.142;-0.974;2022-07-29T13:13:33;100311.25;;;27.83;29.55
44313;BME280;38833;51.142;-0.974;2022-07-29T13:16:07;100307.30;;;27.85;29.51
44313;BME280;38833;51.142;-0.974;2022-07-29T13:18:41;100307.58;;;27.93;29.44
44313;BME280;38833;51.142;-0.974;2022-07-29T13:21:15;100310.49;;;27.87;29.51
44313;BME280;38833;51.142;-0.974;2022-07-29T13:23:48;100309.33;;;28.19;29.47
44313;BME280;38833;51.142;-0.974;2022-07-29T13:26:21;100307.64;;;27.92;29.50